createdAt,value
2023-02-12T00:03:13.602Z,19.53
2023-02-12T00:07:15.441Z,19.20
2023-02-12T00:11:20.092Z,20.60
2023-02-12T00:15:22.074Z,20.47
2023-02-12T00:19:24.218Z,19.90
2023-02-12T00:23:26.105Z,20.40
2023-02-12T00:27:28.080Z,20.47
2023-02-12T00:31:32.781Z,21.27
2023-02-12T00:35:34.708Z,21.50
2023-02-12T00:39:38.120Z,21.20
2023-02-12T00:43:39.974Z,21.77
2023-02-12T00:47:44.997Z,22.90
2023-02-12T00:51:50.677Z,21.50
2023-02-12T00:55:52.762Z,22.90
2023-02-12T00:59:54.887Z,21.30
2023-02-12T01:03:56.693Z,21.23
2023-02-12T01:07:58.512Z,20.33
2023-02-12T01:12:00.343Z,20.87
2023-02-12T01:16:14.302Z,19.17
2023-02-12T01:20:17.699Z,20.13
2023-02-12T01:24:19.581Z,20.40
2023-02-12T01:28:21.394Z,21.23
2023-02-12T01:32:23.518Z,21.00
2023-02-12T01:36:26.358Z,18.33
2023-02-12T01:40:28.349Z,19.50
2023-02-12T01:44:31.138Z,21.60
2023-02-12T01:48:44.850Z,19.20
2023-02-12T01:52:50.530Z,21.83
2023-02-12T01:56:52.419Z,20.70
2023-02-12T02:00:54.162Z,21.30
2023-02-12T02:05:01.852Z,19.43
2023-02-12T02:09:04.127Z,21.13
2023-02-12T02:13:24.331Z,20.27
2023-02-12T02:18:01.409Z,20.10
2023-02-12T02:22:30.276Z,20.77
2023-02-12T02:26:51.028Z,21.00
2023-02-12T02:31:07.285Z,22.00
2023-02-12T02:35:22.169Z,20.53
2023-02-12T02:39:40.892Z,21.30
2023-02-12T02:43:51.237Z,20.33
2023-02-12T02:48:32.824Z,20.03
2023-02-12T02:52:39.997Z,19.70
2023-02-12T02:56:44.207Z,19.30
2023-02-12T03:01:19.740Z,19.50
2023-02-12T03:05:33.038Z,19.53
2023-02-12T03:09:59.614Z,18.17
2023-02-12T03:14:12.001Z,18.33
2023-02-12T03:18:20.169Z,19.30
2023-02-12T03:22:26.837Z,18.03
2023-02-12T03:27:02.528Z,18.43
2023-02-12T03:31:40.594Z,19.87
2023-02-12T03:35:48.155Z,18.43
2023-02-12T03:39:56.270Z,21.17
2023-02-12T03:44:23.147Z,19.17
2023-02-12T03:48:54.253Z,20.00
2023-02-12T03:52:56.045Z,19.57
2023-02-12T03:57:14.161Z,22.13
2023-02-12T04:01:16.234Z,20.33
2023-02-12T04:05:27.252Z,22.80
2023-02-12T04:09:29.408Z,22.63
2023-02-12T04:13:51.004Z,23.10
2023-02-12T04:18:20.673Z,22.83
2023-02-12T04:22:54.043Z,23.50
2023-02-12T04:27:02.357Z,22.87
2023-02-12T04:31:29.955Z,21.80
2023-02-12T04:35:40.294Z,21.20
2023-02-12T04:39:42.345Z,20.50
2023-02-12T04:43:44.216Z,20.30
2023-02-12T04:47:46.889Z,20.17
2023-02-12T04:51:49.101Z,19.43
2023-02-12T04:55:50.941Z,20.40
2023-02-12T04:59:52.850Z,20.87
2023-02-12T05:03:54.785Z,21.33
2023-02-12T05:07:56.776Z,19.23
2023-02-12T05:11:58.612Z,19.10
2023-02-12T05:16:00.750Z,20.23
2023-02-12T05:20:02.621Z,20.17
2023-02-12T05:24:04.804Z,20.50
2023-02-12T05:28:06.674Z,20.57
2023-02-12T05:32:08.977Z,20.17
2023-02-12T05:36:18.388Z,19.73
2023-02-12T05:40:20.251Z,20.67
2023-02-12T05:44:22.123Z,20.47
2023-02-12T05:48:23.957Z,20.23
2023-02-12T05:52:25.748Z,19.60
2023-02-12T05:56:31.428Z,20.10
2023-02-12T06:00:33.301Z,19.50
2023-02-12T06:04:35.201Z,18.60
2023-02-12T06:08:37.340Z,19.07
2023-02-12T06:12:39.245Z,17.00
2023-02-12T06:16:44.110Z,18.40
2023-02-12T06:20:57.003Z,17.13
2023-02-12T06:25:27.930Z,18.00
2023-02-12T06:29:29.989Z,17.43
2023-02-12T06:33:33.129Z,17.40
2023-02-12T06:37:37.169Z,16.60
2023-02-12T06:41:39.398Z,19.03
2023-02-12T06:45:44.424Z,16.87
2023-02-12T06:49:48.784Z,16.40
2023-02-12T06:53:56.559Z,17.30
2023-02-12T06:57:58.465Z,16.30
2023-02-12T07:02:07.785Z,17.00
2023-02-12T07:06:10.043Z,17.33
2023-02-12T07:10:11.928Z,18.37
2023-02-12T07:14:15.662Z,16.03
2023-02-12T07:18:17.659Z,15.90
2023-02-12T07:22:20.821Z,15.50
2023-02-12T07:26:22.800Z,16.93
2023-02-12T07:30:24.734Z,16.27
2023-02-12T07:34:26.822Z,17.50
2023-02-12T07:38:29.203Z,15.97
2023-02-12T07:42:31.189Z,15.10
2023-02-12T07:47:03.806Z,15.57
2023-02-12T07:51:11.085Z,14.80
2023-02-12T07:55:13.042Z,15.10
2023-02-12T07:59:17.081Z,15.53
2023-02-12T08:03:18.905Z,15.13
2023-02-12T08:07:53.949Z,14.90
2023-02-12T08:12:06.706Z,14.43
2023-02-12T08:16:17.019Z,14.80
2023-02-12T08:20:31.766Z,14.80
2023-02-12T08:24:33.693Z,15.10
2023-02-12T08:28:36.304Z,14.90
2023-02-12T08:32:38.780Z,13.63
2023-02-12T08:36:40.725Z,14.27
2023-02-12T08:40:48.507Z,14.97
2023-02-12T08:44:52.162Z,16.53
2023-02-12T08:49:10.116Z,15.07
2023-02-12T08:53:12.041Z,15.30
2023-02-12T08:57:13.957Z,14.43
2023-02-12T09:01:23.194Z,14.53
2023-02-12T09:05:25.222Z,14.30
2023-02-12T09:09:27.274Z,14.90
2023-02-12T09:13:32.232Z,13.60
2023-02-12T09:17:34.286Z,13.90
2023-02-12T09:21:36.148Z,12.37
2023-02-12T09:25:45.435Z,12.70
2023-02-12T09:29:48.424Z,11.80
2023-02-12T09:33:53.382Z,11.60
2023-02-12T09:37:57.016Z,11.23
2023-02-12T09:42:35.104Z,9.90
2023-02-12T09:46:48.486Z,9.87
2023-02-12T09:50:55.622Z,9.30
2023-02-12T09:54:57.577Z,9.13
2023-02-12T09:59:02.853Z,8.87
2023-02-12T10:03:05.974Z,8.23
2023-02-12T10:07:31.226Z,8.20
2023-02-12T10:12:04.651Z,8.17
2023-02-12T10:16:30.382Z,6.80
2023-02-12T10:20:46.698Z,7.30
2023-02-12T10:25:09.343Z,6.53
2023-02-12T10:29:23.427Z,6.03
2023-02-12T10:33:47.059Z,6.53
2023-02-12T10:38:00.699Z,6.13
2023-02-12T10:42:16.453Z,6.97
2023-02-12T10:46:18.417Z,5.73
2023-02-12T10:50:40.727Z,5.90
2023-02-12T10:54:49.810Z,5.67
2023-02-12T10:59:08.169Z,5.47
2023-02-12T11:03:59.055Z,5.03
2023-02-12T11:08:04.659Z,5.70
2023-02-12T11:12:31.267Z,4.73
2023-02-12T11:16:59.600Z,4.90
2023-02-12T11:21:16.714Z,4.60
2023-02-12T11:25:19.166Z,4.90
2023-02-12T11:29:36.737Z,4.33
2023-02-12T11:33:39.114Z,4.67
2023-02-12T11:37:42.689Z,4.63
2023-02-12T11:41:46.927Z,4.60
2023-02-12T11:45:50.204Z,4.07
2023-02-12T11:50:24.928Z,4.33
2023-02-12T11:54:33.050Z,4.40
2023-02-12T11:58:40.597Z,4.47
2023-02-12T12:03:17.091Z,4.63
2023-02-12T12:07:26.385Z,4.27
2023-02-12T12:11:55.024Z,4.53
2023-02-12T12:16:58.384Z,4.00
2023-02-12T12:21:28.495Z,3.97
2023-02-12T12:25:38.207Z,4.53
2023-02-12T12:29:55.507Z,4.47
2023-02-12T12:34:19.383Z,4.23
2023-02-12T12:38:52.613Z,5.67
2023-02-12T12:43:20.882Z,4.77
2023-02-12T12:48:05.219Z,5.30
2023-02-12T12:52:18.105Z,4.87
2023-02-12T12:56:37.403Z,5.60
2023-02-12T13:01:21.251Z,5.43
2023-02-12T13:06:04.544Z,5.10
2023-02-12T13:10:25.589Z,4.70
2023-02-12T13:15:00.637Z,6.40
2023-02-12T13:19:32.936Z,5.23
2023-02-12T13:24:00.558Z,5.57
2023-02-12T13:28:04.521Z,5.67
2023-02-12T13:32:34.771Z,5.83
2023-02-12T13:36:37.269Z,5.53
2023-02-12T13:40:40.659Z,5.60
2023-02-12T13:45:27.800Z,5.17
2023-02-12T13:49:54.439Z,5.37
2023-02-12T13:54:38.031Z,5.47
2023-02-12T13:58:44.608Z,5.30
2023-02-12T14:02:52.637Z,5.33
2023-02-12T14:07:18.542Z,4.90
2023-02-12T14:11:26.712Z,4.80
2023-02-12T14:15:34.622Z,4.80
2023-02-12T14:19:39.003Z,5.83
2023-02-12T14:23:46.186Z,4.70
2023-02-12T14:27:54.539Z,5.00
2023-02-12T14:31:56.651Z,4.60
2023-02-12T14:36:18.155Z,4.70
2023-02-12T14:40:36.498Z,5.53
2023-02-12T14:44:57.481Z,5.00
2023-02-12T14:49:05.938Z,5.80
2023-02-12T14:53:27.132Z,5.83
2023-02-12T14:57:40.510Z,6.10
2023-02-12T15:01:42.483Z,5.80
2023-02-12T15:06:03.247Z,5.80
2023-02-12T15:10:17.709Z,6.37
2023-02-12T15:14:32.014Z,6.93
2023-02-12T15:18:55.715Z,6.83
2023-02-12T15:22:57.565Z,7.27
2023-02-12T15:27:01.480Z,6.70
2023-02-12T15:31:05.064Z,7.83
2023-02-12T15:35:07.527Z,8.13
2023-02-12T15:39:09.360Z,7.60
2023-02-12T15:43:18.144Z,7.13
2023-02-12T15:47:24.742Z,7.63
2023-02-12T15:51:38.775Z,6.87
2023-02-12T15:55:44.508Z,7.43
2023-02-12T15:59:54.369Z,9.33
2023-02-12T16:03:58.446Z,9.47
2023-02-12T16:08:01.233Z,10.57
2023-02-12T16:12:05.741Z,9.60
2023-02-12T16:16:30.017Z,9.73
2023-02-12T16:20:32.275Z,10.20
2023-02-12T16:24:36.920Z,9.20
2023-02-12T16:28:38.954Z,8.47
2023-02-12T16:32:42.899Z,8.93
2023-02-12T16:36:47.796Z,8.80
2023-02-12T16:41:19.445Z,8.30
2023-02-12T16:45:27.519Z,8.87
2023-02-12T16:49:30.346Z,8.47
2023-02-12T16:53:35.031Z,9.83
2023-02-12T16:57:36.977Z,8.53
2023-02-12T17:01:38.905Z,8.47
2023-02-12T17:05:46.012Z,7.67
2023-02-12T17:09:48.234Z,8.77
2023-02-12T17:13:52.487Z,8.53
2023-02-12T17:17:54.352Z,8.57
2023-02-12T17:21:59.586Z,8.47
2023-02-12T17:26:01.507Z,8.57
2023-02-12T17:30:04.889Z,7.53
2023-02-12T17:34:06.957Z,7.30
2023-02-12T17:38:08.831Z,8.23
2023-02-12T17:42:11.632Z,7.97
2023-02-12T17:46:20.283Z,8.37
2023-02-12T17:50:24.998Z,9.10
2023-02-12T17:54:26.962Z,9.17
2023-02-12T17:58:28.921Z,9.10
2023-02-12T18:02:30.906Z,10.03
2023-02-12T18:06:49.528Z,10.53
2023-02-12T18:11:05.039Z,10.33
2023-02-12T18:15:08.387Z,10.93
2023-02-12T18:19:10.231Z,10.30
2023-02-12T18:23:12.032Z,9.93
2023-02-12T18:27:14.221Z,10.27
2023-02-12T18:31:17.132Z,10.40
2023-02-12T18:35:31.569Z,9.90
2023-02-12T18:39:33.542Z,10.23
2023-02-12T18:43:39.758Z,9.93
2023-02-12T18:47:42.175Z,10.57
2023-02-12T18:51:47.785Z,9.33
2023-02-12T18:55:52.598Z,10.70
2023-02-12T18:59:54.916Z,9.33
2023-02-12T19:04:00.667Z,9.83
2023-02-12T19:08:03.143Z,10.20
2023-02-12T19:12:07.028Z,12.47
2023-02-12T19:16:14.976Z,12.50
2023-02-12T19:20:16.975Z,12.50
2023-02-12T19:24:18.994Z,11.43
2023-02-12T19:28:26.152Z,11.77
2023-02-12T19:32:28.133Z,12.80
2023-02-12T19:36:32.806Z,11.37
2023-02-12T19:40:34.772Z,11.20
2023-02-12T19:44:39.468Z,11.73
2023-02-12T19:48:41.485Z,11.30
2023-02-12T19:52:43.464Z,11.17
2023-02-12T19:56:45.722Z,10.83
2023-02-12T20:00:53.674Z,11.43
2023-02-12T20:04:55.877Z,10.33
2023-02-12T20:08:57.844Z,11.83
2023-02-12T20:13:00.009Z,12.97
2023-02-12T20:17:01.847Z,11.47
2023-02-12T20:21:19.244Z,11.90
2023-02-12T20:25:21.253Z,10.00
2023-02-12T20:29:23.370Z,11.93
2023-02-12T20:33:26.272Z,12.70
2023-02-12T20:37:28.147Z,11.80
2023-02-12T20:41:30.177Z,11.40
2023-02-12T20:45:31.997Z,10.50
2023-02-12T20:49:34.409Z,11.40
2023-02-12T20:53:39.644Z,13.10
2023-02-12T20:57:41.587Z,12.70
2023-02-12T21:01:43.526Z,11.70
2023-02-12T21:05:46.291Z,12.73
2023-02-12T21:09:50.258Z,12.33
2023-02-12T21:14:02.431Z,14.40
2023-02-12T21:18:05.287Z,12.47
2023-02-12T21:22:07.197Z,13.53
2023-02-12T21:26:17.210Z,12.60
2023-02-12T21:30:21.752Z,13.20
2023-02-12T21:34:23.786Z,12.40
2023-02-12T21:38:25.609Z,13.23
2023-02-12T21:42:28.771Z,13.97
2023-02-12T21:46:34.335Z,13.30
2023-02-12T21:50:36.267Z,12.17
2023-02-12T21:54:38.059Z,12.23
2023-02-12T21:58:40.791Z,12.60
2023-02-12T22:02:42.696Z,11.97
2023-02-12T22:06:48.195Z,12.17
2023-02-12T22:10:50.096Z,12.43
2023-02-12T22:14:51.926Z,13.47
2023-02-12T22:18:56.125Z,11.37
2023-02-12T22:22:58.417Z,11.53
2023-02-12T22:27:00.951Z,12.00
2023-02-12T22:31:06.888Z,12.50
2023-02-12T22:35:09.183Z,11.37
2023-02-12T22:39:13.000Z,12.00
2023-02-12T22:43:14.866Z,11.63
2023-02-12T22:47:16.644Z,11.50
2023-02-12T22:51:31.810Z,12.20
2023-02-12T22:55:36.511Z,13.07
2023-02-12T22:59:38.489Z,13.70
2023-02-12T23:03:44.071Z,13.00
2023-02-12T23:07:45.895Z,14.13
2023-02-12T23:11:48.240Z,13.97
2023-02-12T23:15:50.141Z,14.63
2023-02-12T23:19:51.920Z,13.60
2023-02-12T23:23:53.915Z,14.30
2023-02-12T23:27:55.709Z,13.90
2023-02-12T23:31:57.577Z,10.97
2023-02-12T23:35:59.676Z,10.93
2023-02-12T23:40:01.480Z,9.53
2023-02-12T23:44:03.812Z,10.03
2023-02-12T23:48:05.918Z,9.97
2023-02-12T23:52:07.723Z,9.33
2023-02-12T23:56:09.591Z,10.93
